Terminal Aerodrome Forecast
Issued by NWS Sioux Falls, SD

Home | Current Version | Previous Version | Graphics & Text | Print | Product List | Glossary On
Versions: 1 2 3 4 5 6 7 8 9 10 11 12 13 14 15
653
FTUS43 KFSD 202322
TAFFSD
TAF
KFSD 202322Z 2100/2124 14008KT 1/2SM FG OVC003
     FM210700 13006KT 1/4SM -RA FG OVC003
     FM211600 VRB03KT 3/4SM BR OVC003
     FM211900 27006KT 4SM BR OVC010
     FM212100 28007KT P6SM OVC015
     FM212300 28007KT P6SM OVC035=

USA.gov is the U.S. government's official web portal to all federal, state and local government web resources and services.